createdAt,value
2018-11-23T00:00:33.787Z,230.67
2018-11-23T00:03:03.495Z,256.50
2018-11-23T00:05:32.961Z,261.00
2018-11-23T00:08:02.330Z,253.03
2018-11-23T00:10:32.959Z,278.47
2018-11-23T00:13:02.177Z,273.70
2018-11-23T00:15:31.548Z,278.77
2018-11-23T00:18:00.933Z,271.50
2018-11-23T00:20:30.673Z,254.47
2018-11-23T00:22:59.717Z,261.90
2018-11-23T00:25:29.304Z,262.57
2018-11-23T00:27:58.977Z,255.90
2018-11-23T00:30:29.498Z,237.83
2018-11-23T00:32:58.601Z,263.73
2018-11-23T00:35:29.057Z,262.17
2018-11-23T00:37:58.165Z,251.57
2018-11-23T00:40:28.785Z,254.77
2018-11-23T00:42:58.378Z,248.60
2018-11-23T00:45:27.592Z,249.27
2018-11-23T00:47:57.920Z,262.97
2018-11-23T00:50:27.553Z,237.73
2018-11-23T00:52:57.880Z,227.60
2018-11-23T00:55:27.731Z,229.33
2018-11-23T00:57:57.007Z,242.50
2018-11-23T01:00:28.530Z,243.70
2018-11-23T01:02:58.606Z,236.13
2018-11-23T01:05:28.319Z,235.27
2018-11-23T01:07:57.629Z,249.47
2018-11-23T01:10:28.012Z,255.93
2018-11-23T01:12:57.948Z,274.30
2018-11-23T01:15:27.249Z,269.10
2018-11-23T01:17:56.607Z,271.97
2018-11-23T01:20:27.053Z,232.60
2018-11-23T01:22:57.054Z,243.07
2018-11-23T01:25:27.003Z,234.30
2018-11-23T01:27:56.602Z,234.77
2018-11-23T01:30:29.142Z,231.07
2018-11-23T01:32:58.622Z,234.57
2018-11-23T01:35:27.906Z,220.20
2018-11-23T01:37:57.340Z,225.10
2018-11-23T01:40:28.207Z,227.80
2018-11-23T01:42:57.841Z,224.80
2018-11-23T01:45:27.212Z,226.07
2018-11-23T01:47:56.553Z,223.37
2018-11-23T01:50:27.368Z,222.27
2018-11-23T01:52:56.975Z,241.17
2018-11-23T01:55:26.777Z,244.40
2018-11-23T01:57:56.716Z,248.20
2018-11-23T02:00:27.686Z,252.13
2018-11-23T02:02:57.541Z,261.47
2018-11-23T02:05:27.066Z,264.63
2018-11-23T02:07:56.404Z,255.47
2018-11-23T02:10:25.592Z,256.93
2018-11-23T02:12:54.863Z,242.67
2018-11-23T02:15:24.390Z,240.37
2018-11-23T02:17:53.902Z,259.93
2018-11-23T02:20:23.391Z,259.73
2018-11-23T02:22:52.467Z,255.50
2018-11-23T02:25:21.743Z,255.47
2018-11-23T02:27:50.876Z,255.80
2018-11-23T02:30:21.305Z,260.73
2018-11-23T02:32:50.834Z,251.30
2018-11-23T02:35:20.188Z,248.87
2018-11-23T02:37:49.453Z,252.20
2018-11-23T02:40:19.529Z,243.40
2018-11-23T02:42:49.007Z,238.93
2018-11-23T02:45:19.617Z,256.77
2018-11-23T02:47:49.244Z,272.87
2018-11-23T02:50:18.482Z,253.17
2018-11-23T02:52:48.473Z,242.80
2018-11-23T02:55:19.107Z,238.17
2018-11-23T02:57:49.595Z,240.80
2018-11-23T03:00:20.085Z,250.97
2018-11-23T03:02:49.521Z,236.80
2018-11-23T03:05:20.121Z,237.87
2018-11-23T03:07:49.529Z,241.33
2018-11-23T03:10:18.844Z,240.10
2018-11-23T03:12:48.513Z,236.63
2018-11-23T03:15:18.620Z,238.57
2018-11-23T03:17:48.297Z,238.50
2018-11-23T03:20:20.095Z,242.83
2018-11-23T03:22:49.199Z,229.50
2018-11-23T03:25:18.684Z,221.93
2018-11-23T03:27:48.102Z,215.53
2018-11-23T03:30:20.243Z,206.10
2018-11-23T03:32:50.539Z,199.13
2018-11-23T03:35:20.413Z,194.97
2018-11-23T03:37:49.814Z,206.23
2018-11-23T03:40:19.220Z,203.20
2018-11-23T03:42:48.500Z,200.93
2018-11-23T03:45:18.176Z,208.40
2018-11-23T03:47:47.270Z,208.60
2018-11-23T03:50:17.311Z,223.83
2018-11-23T03:52:46.805Z,213.03
2018-11-23T03:55:16.172Z,198.83
2018-11-23T03:57:45.121Z,208.37
2018-11-23T04:00:19.330Z,206.53
2018-11-23T04:02:49.397Z,191.83
2018-11-23T04:05:18.849Z,201.97
2018-11-23T04:07:48.189Z,185.47
2018-11-23T04:10:18.007Z,187.80
2018-11-23T04:12:47.113Z,184.50
2018-11-23T04:15:16.537Z,172.47
2018-11-23T04:17:46.010Z,172.97
2018-11-23T04:20:16.149Z,169.67
2018-11-23T04:22:45.509Z,171.37
2018-11-23T04:25:15.090Z,172.37
2018-11-23T04:27:44.365Z,163.43
2018-11-23T04:30:16.580Z,167.80
2018-11-23T04:32:46.724Z,189.73
2018-11-23T04:35:17.294Z,192.27
2018-11-23T04:37:47.245Z,208.63
2018-11-23T04:40:17.334Z,199.93
2018-11-23T04:42:46.399Z,170.90
2018-11-23T04:45:16.018Z,170.63
2018-11-23T04:47:45.655Z,187.50
2018-11-23T04:50:15.847Z,161.33
2018-11-23T04:52:45.501Z,178.60
2018-11-23T04:55:15.103Z,198.57
2018-11-23T04:57:44.837Z,202.27
2018-11-23T05:00:16.232Z,320.03
2018-11-23T05:02:46.073Z,240.60
2018-11-23T05:05:15.535Z,250.47
2018-11-23T05:07:46.205Z,359.50
2018-11-23T05:10:16.412Z,338.63
2018-11-23T05:12:45.564Z,345.40
2018-11-23T05:15:16.182Z,338.43
2018-11-23T05:17:45.420Z,319.43
2018-11-23T05:20:15.341Z,386.90
2018-11-23T05:22:44.894Z,406.07
2018-11-23T05:25:15.287Z,284.43
2018-11-23T05:27:44.538Z,365.87
2018-11-23T05:30:16.633Z,345.17
2018-11-23T05:32:45.781Z,320.77
2018-11-23T05:35:15.667Z,322.50
2018-11-23T05:37:45.181Z,247.33
2018-11-23T05:40:17.026Z,255.27
2018-11-23T05:42:46.186Z,288.53
2018-11-23T05:45:20.939Z,324.20
2018-11-23T05:47:50.540Z,286.50
2018-11-23T05:50:22.675Z,270.00
2018-11-23T05:52:52.842Z,249.17
2018-11-23T05:55:21.944Z,272.03
2018-11-23T05:57:51.031Z,239.53
2018-11-23T06:00:21.614Z,279.27
2018-11-23T06:02:50.860Z,257.07
2018-11-23T06:05:20.359Z,311.83
2018-11-23T06:07:49.491Z,253.87
2018-11-23T06:10:20.037Z,356.60
2018-11-23T06:12:49.358Z,294.93
2018-11-23T06:15:19.971Z,313.40
2018-11-23T06:17:49.642Z,344.20
2018-11-23T06:20:21.528Z,346.90
2018-11-23T06:22:51.758Z,350.87
2018-11-23T06:25:30.719Z,379.87
2018-11-23T06:28:00.306Z,317.77
2018-11-23T06:30:29.609Z,351.77
2018-11-23T06:33:10.065Z,465.07
2018-11-23T06:35:39.340Z,451.83
2018-11-23T06:38:08.661Z,459.67
2018-11-23T06:40:38.036Z,479.90
2018-11-23T06:43:07.234Z,561.93
2018-11-23T06:45:39.574Z,430.00
2018-11-23T06:48:10.145Z,383.63
2018-11-23T06:50:39.546Z,348.70
2018-11-23T06:53:09.127Z,305.47
2018-11-23T06:55:38.576Z,225.27
2018-11-23T06:58:07.796Z,221.60
2018-11-23T07:00:37.413Z,255.67
2018-11-23T07:03:06.734Z,209.73
2018-11-23T07:05:36.102Z,246.03
2018-11-23T07:08:05.427Z,228.63
2018-11-23T07:10:34.862Z,184.53
2018-11-23T07:13:04.111Z,169.60
2018-11-23T07:15:33.533Z,197.13
2018-11-23T07:18:02.497Z,231.83
2018-11-23T07:20:31.965Z,274.40
2018-11-23T07:23:01.210Z,249.50
2018-11-23T07:25:30.733Z,235.43
2018-11-23T07:28:00.164Z,271.20
2018-11-23T07:30:29.900Z,264.07
2018-11-23T07:32:59.220Z,233.37
2018-11-23T07:35:28.357Z,251.67
2018-11-23T07:37:57.706Z,232.80
2018-11-23T07:40:40.849Z,239.37
2018-11-23T07:43:10.012Z,216.57
2018-11-23T07:45:39.363Z,223.53
2018-11-23T07:48:09.409Z,255.20
2018-11-23T07:50:38.961Z,218.57
2018-11-23T07:53:08.330Z,226.50
2018-11-23T07:55:37.709Z,229.83
2018-11-23T07:58:07.820Z,200.53
2018-11-23T08:00:37.230Z,169.23
2018-11-23T08:03:06.721Z,150.60
2018-11-23T08:05:35.851Z,142.67
2018-11-23T08:08:05.093Z,144.13
2018-11-23T08:10:33.892Z,137.83
2018-11-23T08:13:02.967Z,135.20
2018-11-23T08:15:32.596Z,137.93
2018-11-23T08:18:01.666Z,164.30
2018-11-23T08:20:31.033Z,154.37
2018-11-23T08:23:00.302Z,152.00
2018-11-23T08:25:29.571Z,147.73
2018-11-23T08:27:58.955Z,140.80
2018-11-23T08:30:29.493Z,165.20
2018-11-23T08:32:58.946Z,144.53
2018-11-23T08:35:28.333Z,157.30
2018-11-23T08:37:57.564Z,182.50
2018-11-23T08:40:27.484Z,158.63
2018-11-23T08:42:57.513Z,157.43
2018-11-23T08:45:27.760Z,134.20
2018-11-23T08:47:56.985Z,120.17
2018-11-23T08:50:28.722Z,125.73
2018-11-23T08:52:57.962Z,131.80
2018-11-23T08:55:27.480Z,131.50
2018-11-23T08:57:56.666Z,128.47
2018-11-23T09:00:28.666Z,130.47
2018-11-23T09:03:01.234Z,103.27
2018-11-23T09:05:30.130Z,109.07
2018-11-23T09:07:59.788Z,136.00
2018-11-23T09:10:30.201Z,141.63
2018-11-23T09:13:01.604Z,145.20
2018-11-23T09:15:30.922Z,139.67
2018-11-23T09:18:00.273Z,142.80
2018-11-23T09:20:29.619Z,147.00
2018-11-23T09:22:58.785Z,136.53
2018-11-23T09:25:28.248Z,143.93
2018-11-23T09:27:57.492Z,135.13
2018-11-23T09:30:27.190Z,131.77
2018-11-23T09:32:56.766Z,124.30
2018-11-23T09:35:27.861Z,137.50
2018-11-23T09:37:57.045Z,120.13
2018-11-23T09:40:27.878Z,111.20
2018-11-23T09:42:57.584Z,102.13
2018-11-23T09:45:29.546Z,81.03
2018-11-23T09:48:00.191Z,89.87
2018-11-23T09:50:29.704Z,93.17
2018-11-23T09:53:01.109Z,70.33
2018-11-23T09:55:31.314Z,67.33
2018-11-23T09:58:00.619Z,65.07
2018-11-23T10:00:32.490Z,98.00
2018-11-23T10:03:02.050Z,94.23
2018-11-23T10:05:31.973Z,96.47
2018-11-23T10:08:03.573Z,93.93
2018-11-23T10:10:32.832Z,78.10
2018-11-23T10:13:02.133Z,59.97
2018-11-23T10:15:32.177Z,59.37
2018-11-23T10:18:02.195Z,55.33
2018-11-23T10:20:32.120Z,49.63
2018-11-23T10:23:01.263Z,51.60
2018-11-23T10:25:32.310Z,70.57
2018-11-23T10:28:01.482Z,76.20
2018-11-23T10:30:32.909Z,77.00
2018-11-23T10:33:03.518Z,72.80
2018-11-23T10:35:32.432Z,66.20
2018-11-23T10:38:03.572Z,72.87
2018-11-23T10:40:35.204Z,61.63
2018-11-23T10:43:04.273Z,59.93
2018-11-23T10:45:34.121Z,52.50
2018-11-23T10:48:04.704Z,46.63
2018-11-23T10:50:35.674Z,47.50
2018-11-23T10:53:05.092Z,42.20
2018-11-23T10:55:35.421Z,38.50
2018-11-23T10:58:05.202Z,37.13
2018-11-23T11:00:39.637Z,35.30
2018-11-23T11:03:14.334Z,36.23
2018-11-23T11:05:49.053Z,35.70
2018-11-23T11:08:18.650Z,35.30
2018-11-23T11:10:48.791Z,32.93
2018-11-23T11:13:18.205Z,33.17
2018-11-23T11:15:47.411Z,37.20
2018-11-23T11:18:16.706Z,31.07
2018-11-23T11:20:46.011Z,31.37
2018-11-23T11:23:15.284Z,35.80
2018-11-23T11:25:44.815Z,34.53
2018-11-23T11:28:14.206Z,30.47
2018-11-23T11:30:43.575Z,25.13
2018-11-23T11:33:12.809Z,32.90
2018-11-23T11:35:42.125Z,33.93
2018-11-23T11:38:12.154Z,32.23
2018-11-23T11:40:41.304Z,27.70
2018-11-23T11:43:10.514Z,30.33
2018-11-23T11:45:39.793Z,31.43
2018-11-23T11:48:09.158Z,32.03
2018-11-23T11:50:39.021Z,28.67
2018-11-23T11:53:08.374Z,30.20
2018-11-23T11:55:37.894Z,30.47
2018-11-23T11:58:07.231Z,26.50
2018-11-23T12:00:36.674Z,35.10
2018-11-23T12:03:06.121Z,72.37
2018-11-23T12:05:35.456Z,45.03
2018-11-23T12:08:04.804Z,40.27
2018-11-23T12:10:34.186Z,35.67
2018-11-23T12:13:03.515Z,36.43
2018-11-23T12:15:32.820Z,41.00
2018-11-23T12:18:02.086Z,41.93
2018-11-23T12:20:31.443Z,40.87
2018-11-23T12:23:00.421Z,41.30
2018-11-23T12:25:29.419Z,44.33
2018-11-23T12:27:58.837Z,47.40
2018-11-23T12:30:27.772Z,50.50
2018-11-23T12:32:56.563Z,50.23
2018-11-23T12:35:26.223Z,54.77
2018-11-23T12:37:55.465Z,53.07
2018-11-23T12:40:25.012Z,51.03
2018-11-23T12:42:54.368Z,51.17
2018-11-23T12:45:24.080Z,65.70
2018-11-23T12:47:53.281Z,69.07
2018-11-23T12:50:23.487Z,66.40
2018-11-23T12:52:52.976Z,69.53
2018-11-23T12:55:23.250Z,69.20
2018-11-23T12:57:52.505Z,77.67
2018-11-23T13:00:25.478Z,84.33
2018-11-23T13:02:59.298Z,77.57
2018-11-23T13:05:30.580Z,80.33
2018-11-23T13:08:01.407Z,78.50
2018-11-23T13:10:31.321Z,82.47
2018-11-23T13:13:01.270Z,83.20
2018-11-23T13:15:30.891Z,83.40
2018-11-23T13:18:00.753Z,89.70
2018-11-23T13:20:30.024Z,86.90
2018-11-23T13:22:58.957Z,86.30
2018-11-23T13:25:30.089Z,88.80
2018-11-23T13:28:00.797Z,93.47
2018-11-23T13:30:31.597Z,100.13
2018-11-23T13:33:00.806Z,106.33
2018-11-23T13:35:29.918Z,101.40
2018-11-23T13:37:59.376Z,108.10
2018-11-23T13:40:29.302Z,109.13
2018-11-23T13:42:59.861Z,110.57
2018-11-23T13:45:31.824Z,117.23
2018-11-23T13:48:00.959Z,116.17
2018-11-23T13:50:30.298Z,114.20
2018-11-23T13:53:01.826Z,112.83
2018-11-23T13:55:31.068Z,108.37
2018-11-23T13:58:01.240Z,108.93
2018-11-23T14:00:31.329Z,114.47
2018-11-23T14:03:00.583Z,135.67
2018-11-23T14:05:31.605Z,130.77
2018-11-23T14:08:02.630Z,112.70
2018-11-23T14:10:32.959Z,110.93
2018-11-23T14:13:02.378Z,107.83
2018-11-23T14:15:32.787Z,113.03
2018-11-23T14:18:02.361Z,128.43
2018-11-23T14:20:32.053Z,138.90
2018-11-23T14:23:01.369Z,111.63
2018-11-23T14:25:31.728Z,109.23
2018-11-23T14:28:01.379Z,112.73
2018-11-23T14:30:32.365Z,124.00
2018-11-23T14:33:02.159Z,160.43
2018-11-23T14:35:32.374Z,175.83
2018-11-23T14:38:02.223Z,166.77
2018-11-23T14:40:34.029Z,188.23
2018-11-23T14:43:03.312Z,172.33
2018-11-23T14:45:34.220Z,168.80
2018-11-23T14:48:08.032Z,161.13
2018-11-23T14:50:42.731Z,145.00
2018-11-23T14:53:12.513Z,157.50
2018-11-23T14:55:41.744Z,167.23
2018-11-23T14:58:11.304Z,151.17
2018-11-23T15:00:40.751Z,165.67
2018-11-23T15:03:10.735Z,171.00
2018-11-23T15:05:41.083Z,185.00
2018-11-23T15:08:10.970Z,194.37
2018-11-23T15:10:41.758Z,164.37
2018-11-23T15:13:11.009Z,178.30
2018-11-23T15:15:41.298Z,161.60
2018-11-23T15:18:10.750Z,188.87
2018-11-23T15:20:41.418Z,195.90
2018-11-23T15:23:13.039Z,211.03
2018-11-23T15:25:42.304Z,170.30
2018-11-23T15:28:12.357Z,172.93
2018-11-23T15:30:42.342Z,200.93
2018-11-23T15:33:13.537Z,178.67
2018-11-23T15:35:43.225Z,195.10
2018-11-23T15:38:17.425Z,184.47
2018-11-23T15:40:47.044Z,245.37
2018-11-23T15:43:17.162Z,342.07
2018-11-23T15:45:46.535Z,240.97
2018-11-23T15:48:15.880Z,275.40
2018-11-23T15:50:45.384Z,325.00
2018-11-23T15:53:15.663Z,327.57
2018-11-23T15:55:45.452Z,274.43
2018-11-23T15:58:16.133Z,249.37
2018-11-23T16:00:46.885Z,248.17
2018-11-23T16:03:16.866Z,276.97
2018-11-23T16:05:46.407Z,245.83
2018-11-23T16:08:18.132Z,239.90
2018-11-23T16:10:47.163Z,314.73
2018-11-23T16:13:16.678Z,352.87
2018-11-23T16:15:46.657Z,391.53
2018-11-23T16:18:15.819Z,338.53
2018-11-23T16:20:46.121Z,291.20
2018-11-23T16:23:16.873Z,324.33
2018-11-23T16:25:46.816Z,258.57
2018-11-23T16:28:16.461Z,255.80
2018-11-23T16:30:48.331Z,215.57
2018-11-23T16:33:19.192Z,203.43
2018-11-23T16:35:48.386Z,201.10
2018-11-23T16:38:21.255Z,252.13
2018-11-23T16:40:53.683Z,202.63
2018-11-23T16:43:23.064Z,204.13
2018-11-23T16:45:52.370Z,227.77
2018-11-23T16:48:22.200Z,279.77
2018-11-23T16:50:51.549Z,412.50
2018-11-23T16:53:21.696Z,276.33
2018-11-23T16:55:51.309Z,234.93
2018-11-23T16:58:20.777Z,400.53
2018-11-23T17:00:50.142Z,337.03
2018-11-23T17:03:21.709Z,461.80
2018-11-23T17:05:52.352Z,435.97
2018-11-23T17:08:21.854Z,402.07
2018-11-23T17:10:51.071Z,375.63
2018-11-23T17:13:20.647Z,318.70
2018-11-23T17:15:50.202Z,483.87
2018-11-23T17:18:19.672Z,414.53
2018-11-23T17:20:48.973Z,348.93
2018-11-23T17:23:18.277Z,540.97
2018-11-23T17:25:47.736Z,475.13
2018-11-23T17:28:17.303Z,380.50
2018-11-23T17:30:46.579Z,251.60
2018-11-23T17:33:15.691Z,191.10
2018-11-23T17:35:44.922Z,234.30
2018-11-23T17:38:14.234Z,170.13
2018-11-23T17:40:43.603Z,183.67
2018-11-23T17:43:12.938Z,515.80
2018-11-23T17:45:42.154Z,315.20
2018-11-23T17:48:11.947Z,207.77
2018-11-23T17:50:42.027Z,190.70
2018-11-23T17:53:11.112Z,144.00
2018-11-23T17:55:41.870Z,173.97
2018-11-23T17:58:11.270Z,225.97
2018-11-23T18:00:40.459Z,349.57
2018-11-23T18:03:09.666Z,201.23
2018-11-23T18:05:39.191Z,195.00
2018-11-23T18:08:08.441Z,220.70
2018-11-23T18:10:37.957Z,311.23
2018-11-23T18:13:07.367Z,329.00
2018-11-23T18:15:36.640Z,293.80
2018-11-23T18:18:06.392Z,364.83
2018-11-23T18:20:35.921Z,428.23
2018-11-23T18:23:05.601Z,371.43
2018-11-23T18:25:36.545Z,360.37
2018-11-23T18:28:06.064Z,343.50
2018-11-23T18:30:35.331Z,270.43
2018-11-23T18:33:06.097Z,337.67
2018-11-23T18:35:35.789Z,343.50
2018-11-23T18:38:04.993Z,253.23
2018-11-23T18:40:37.567Z,336.07
2018-11-23T18:43:05.260Z,292.33
2018-11-23T18:45:34.784Z,251.60
2018-11-23T18:48:04.441Z,293.70
2018-11-23T18:50:33.704Z,355.07
2018-11-23T18:53:03.321Z,300.43
2018-11-23T18:55:32.446Z,320.60
2018-11-23T18:58:01.632Z,339.33
2018-11-23T19:00:30.985Z,268.83
2018-11-23T19:03:00.524Z,354.43
2018-11-23T19:05:30.101Z,275.87
2018-11-23T19:07:59.717Z,306.33
2018-11-23T19:10:29.234Z,286.43
2018-11-23T19:12:59.093Z,316.80
2018-11-23T19:15:28.510Z,240.53
2018-11-23T19:17:57.737Z,182.30
2018-11-23T19:20:27.137Z,217.67
2018-11-23T19:22:56.669Z,213.77
2018-11-23T19:25:26.126Z,304.23
2018-11-23T19:27:55.749Z,271.80
2018-11-23T19:30:28.814Z,227.03
2018-11-23T19:32:55.230Z,276.13
2018-11-23T19:35:24.579Z,240.63
2018-11-23T19:37:55.726Z,250.30
2018-11-23T19:40:26.703Z,269.57
2018-11-23T19:42:56.160Z,243.27
2018-11-23T19:45:26.379Z,254.57
2018-11-23T19:47:55.659Z,216.30
2018-11-23T19:50:25.170Z,207.80
2018-11-23T19:52:55.824Z,288.63
2018-11-23T19:55:26.513Z,279.57
2018-11-23T19:57:56.603Z,335.27
2018-11-23T20:00:27.662Z,179.20
2018-11-23T20:02:56.974Z,187.40
2018-11-23T20:05:26.055Z,206.10
2018-11-23T20:07:57.313Z,239.17
2018-11-23T20:10:26.710Z,223.87
2018-11-23T20:12:57.471Z,191.27
2018-11-23T20:15:27.120Z,232.57
2018-11-23T20:17:56.509Z,229.87
2018-11-23T20:20:25.790Z,218.37
2018-11-23T20:22:55.423Z,210.10
2018-11-23T20:25:24.457Z,193.00
2018-11-23T20:27:54.105Z,185.60
2018-11-23T20:30:23.289Z,227.20
2018-11-23T20:32:52.609Z,212.57
2018-11-23T20:35:22.585Z,231.03
2018-11-23T20:37:52.518Z,284.47
2018-11-23T20:40:22.504Z,180.27
2018-11-23T20:42:52.244Z,137.90
2018-11-23T20:45:21.625Z,230.00
2018-11-23T20:47:51.013Z,260.50
2018-11-23T20:50:20.872Z,276.10
2018-11-23T20:52:50.230Z,298.57
2018-11-23T20:55:20.243Z,345.97
2018-11-23T20:57:49.946Z,303.00
2018-11-23T21:00:19.987Z,316.77
2018-11-23T21:02:50.136Z,287.43
2018-11-23T21:05:20.150Z,310.97
2018-11-23T21:07:49.611Z,337.17
2018-11-23T21:10:21.557Z,420.87
2018-11-23T21:12:51.113Z,339.87
2018-11-23T21:15:22.625Z,358.30
2018-11-23T21:17:52.356Z,361.17
2018-11-23T21:20:21.639Z,378.47
2018-11-23T21:22:50.851Z,446.17
2018-11-23T21:25:20.494Z,386.60
2018-11-23T21:27:49.936Z,513.17
2018-11-23T21:30:20.848Z,401.37
2018-11-23T21:32:51.009Z,487.80
2018-11-23T21:35:20.056Z,295.77
2018-11-23T21:37:50.400Z,354.87
2018-11-23T21:40:19.750Z,395.47
2018-11-23T21:42:50.411Z,273.67
2018-11-23T21:45:20.785Z,205.03
2018-11-23T21:47:50.387Z,142.27
2018-11-23T21:50:25.516Z,174.57
2018-11-23T21:52:49.906Z,150.77
2018-11-23T21:55:20.693Z,191.73
2018-11-23T21:57:57.436Z,258.20
2018-11-23T22:00:26.792Z,267.03
2018-11-23T22:02:56.030Z,178.63
2018-11-23T22:05:26.462Z,288.23
2018-11-23T22:07:57.056Z,248.10
2018-11-23T22:10:28.024Z,230.70
2018-11-23T22:12:58.314Z,242.77
2018-11-23T22:15:27.688Z,264.67
2018-11-23T22:17:58.572Z,368.97
2018-11-23T22:20:28.469Z,262.83
2018-11-23T22:22:58.394Z,237.23
2018-11-23T22:25:27.773Z,245.00
2018-11-23T22:27:57.479Z,276.07
2018-11-23T22:30:31.191Z,291.40
2018-11-23T22:33:00.390Z,450.70
2018-11-23T22:35:30.520Z,218.77
2018-11-23T22:38:02.529Z,286.30
2018-11-23T22:40:32.166Z,226.33
2018-11-23T22:43:02.867Z,213.30
2018-11-23T22:45:36.395Z,247.97
2018-11-23T22:48:07.300Z,262.60
2018-11-23T22:50:36.523Z,219.57
2018-11-23T22:53:06.355Z,241.17
2018-11-23T22:55:35.583Z,221.80
2018-11-23T22:58:07.628Z,241.83
2018-11-23T23:00:46.361Z,253.17
2018-11-23T23:03:15.980Z,194.63
2018-11-23T23:05:46.365Z,254.33
2018-11-23T23:08:15.611Z,168.13
2018-11-23T23:10:44.977Z,216.27
2018-11-23T23:13:15.177Z,218.17
2018-11-23T23:15:46.620Z,212.33
2018-11-23T23:18:16.903Z,231.23
2018-11-23T23:20:46.298Z,215.63
2018-11-23T23:23:15.448Z,241.60
2018-11-23T23:25:44.814Z,207.97
2018-11-23T23:28:14.364Z,196.33
2018-11-23T23:30:43.631Z,210.80
2018-11-23T23:33:12.620Z,176.37
2018-11-23T23:35:42.209Z,162.43
2018-11-23T23:38:11.386Z,275.53
2018-11-23T23:40:40.650Z,196.07
2018-11-23T23:43:10.956Z,126.00
2018-11-23T23:45:40.425Z,159.37
2018-11-23T23:48:09.525Z,192.20
2018-11-23T23:50:39.049Z,159.50
2018-11-23T23:53:08.492Z,198.17
2018-11-23T23:55:37.751Z,189.17
2018-11-23T23:58:07.062Z,175.33
